This is the latest recevied weather packets stored in our database for station/object K4CRS-13. If no packets are shown the sender has not sent any weather packets the latest 10 day(s).
| Time | Temp. | Humidity | Pressure | Rain* | Wind** | Luminosity | Snow |
|---|---|---|---|---|---|---|---|
| 1778017426 | 21.67° C | 69% | 1045.8 hPa | 0 mm | - | 108 W/m² | - |
| 1778017123 | 22.22° C | 68% | 1045.8 hPa | 0 mm | - | 98 W/m² | - |
| 1778016821 | 22.78° C | 68% | 1046 hPa | 0 mm | - | 100 W/m² | - |
| 1778016516 | 22.78° C | 68% | 1046 hPa | 0 mm | - | 214 W/m² | - |
| 1778016214 | 22.78° C | 68% | 1045.7 hPa | 0 mm | - | 262 W/m² | - |
| 1778015910 | 22.22° C | 67% | 1045.5 hPa | 0 mm | - | 234 W/m² | - |
| 1778015608 | 22.22° C | 68% | 1045.9 hPa | 0 mm | - | 294 W/m² | - |
| 1778015304 | 22.22° C | 67% | 1045.8 hPa | 0 mm | - | 241 W/m² | - |
| 1778015001 | 22.78° C | 67% | 1045.8 hPa | 0 mm | - | 215 W/m² | - |
| 1778014698 | 22.78° C | 67% | 1046.1 hPa | 0 mm | - | 280 W/m² | - |
| 1778014396 | 22.78° C | 67% | 1046.1 hPa | 0 mm | - | 217 W/m² | - |
| 1778014092 | 22.78° C | 65% | 1046.3 hPa | 0 mm | - | 252 W/m² | - |
| 1778013791 | 22.78° C | 66% | 1046.1 hPa | 0 mm | - | 361 W/m² | - |
| 1778013488 | 22.22° C | 68% | 1045.8 hPa | 0 mm | - | 429 W/m² | - |
| 1778013184 | 21.67° C | 68% | 1045.8 hPa | 0 mm | - | 263 W/m² | - |
| 1778012880 | 21.67° C | 68% | 1045.9 hPa | 0 mm | - | 162 W/m² | - |
| 1778012576 | 21.67° C | 68% | 1046.4 hPa | 0 mm | - | 96 W/m² | - |
| 1778012273 | 21.67° C | 67% | - | 0 mm | - | - | - |
| 1778009074 | 23.89° C | 59% | 1046.5 hPa | 0 mm | - | 461 W/m² | - |
| 1778008771 | 23.89° C | 59% | 1046.5 hPa | 0 mm | - | 461 W/m² | - |
| 1778008470 | 24.44° C | 60% | 1046.6 hPa | 0 mm | - | 555 W/m² | - |
| 1778008166 | 24.44° C | 61% | 1046.7 hPa | 0 mm | - | 792 W/m² | - |
| 1778007861 | 23.89° C | 64% | 1046.8 hPa | 0 mm | - | 869 W/m² | - |
| 1778007557 | 22.78° C | 66% | 1046.7 hPa | 0 mm | - | 840 W/m² | - |
| 1778007255 | 22.22° C | 70% | 1047 hPa | 0 mm | - | 327 W/m² | - |
* Rain latest hour (hover to see other rain measurements)
** Current wind speed in m/s (hover to see current wind gust speed)